Time;durP1;ratioP1;P1;durP2;ratioP2;P2;SDS_P1;SDS_P2;PMS_P1;PMS_P2;Temp;Humidity;BMP_temperature;BMP_pressure;BME280_temperature;BME280_humidity;BME280_pressure;Samples;Min_cycle;Max_cycle;Signal;HPM_P1;HPM_P2
2022/12/17 13:07:27;;;;;;;20.93;9.13;;;;;;;-4.10;84.79;101663.44;5024823;28;20450;-69
2022/12/17 13:09:56;;;;;;;29.00;10.60;;;;;;;-4.12;84.49;101656.31;5041859;28;20885;-66
2022/12/17 13:12:28;;;;;;;35.13;12.03;;;;;;;-4.04;85.18;101660.50;5051267;28;20975;-65
2022/12/17 13:14:57;;;;;;;44.87;20.23;;;;;;;-4.10;84.96;101659.94;5065825;28;20462;-67
2022/12/17 13:18:00;;;;;;;26.83;10.63;;;;;;;-4.13;84.65;101660.56;5059070;28;20955;-66
2022/12/17 13:20:27;;;;;;;32.33;12.30;;;;;;;-4.17;84.82;101649.81;5031367;28;20547;-67
2022/12/17 13:23:08;;;;;;;48.43;21.20;;;;;;;-4.11;85.91;101652.94;5060113;28;20465;-68
2022/12/17 13:25:36;;;;;;;30.47;12.60;;;;;;;-4.23;85.14;101659.59;5066219;28;21098;-66
2022/12/17 13:28:02;;;;;;;33.93;11.90;;;;;;;-4.20;85.28;101650.44;5065476;28;20465;-67
2022/12/17 13:30:36;;;;;;;40.20;13.83;;;;;;;-4.19;85.59;101659.09;5060528;28;20540;-68
2022/12/17 13:33:36;;;;;;;29.67;12.73;;;;;;;-4.17;85.05;101654.97;5063846;28;20495;-67
2022/12/17 13:36:21;;;;;;;36.83;12.53;;;;;;;-4.29;84.32;101640.94;5047603;28;20462;-69
2022/12/17 13:38:59;;;;;;;38.73;12.90;;;;;;;-4.19;84.13;101649.66;5060970;28;20466;-65
2022/12/17 13:41:32;;;;;;;36.80;13.77;;;;;;;-4.24;84.46;101647.44;5064504;28;20458;-67
2022/12/17 13:44:03;;;;;;;31.27;13.10;;;;;;;-4.25;85.23;101638.75;5063908;28;20488;-68
2022/12/17 13:46:45;;;;;;;35.87;13.67;;;;;;;-4.13;84.82;101650.22;5062734;28;20451;-67
2022/12/17 13:49:27;;;;;;;47.70;21.70;;;;;;;-4.10;85.73;101647.00;5063856;28;20470;-67
2022/12/17 13:52:20;;;;;;;32.90;13.13;;;;;;;-4.21;85.04;101646.03;5063452;28;20845;-67
2022/12/17 13:54:47;;;;;;;36.67;14.70;;;;;;;-4.18;86.22;101648.91;5061213;28;22089;-67
2022/12/17 13:57:23;;;;;;;33.43;13.47;;;;;;;-4.22;85.16;101648.47;5065225;28;20551;-70
2022/12/17 13:59:52;;;;;;;36.87;13.13;;;;;;;-4.22;84.10;101651.06;5062546;28;20555;-66
2022/12/17 14:02:32;;;;;;;41.50;14.50;;;;;;;-4.29;84.21;101656.44;5063341;28;20987;-66
2022/12/17 14:05:01;;;;;;;35.07;14.87;;;;;;;-4.40;84.25;101658.06;5056687;28;20472;-67
2022/12/17 14:07:37;;;;;;;28.30;10.60;;;;;;;-4.47;83.85;101671.16;5062782;28;20834;-67
2022/12/17 14:10:04;;;;;;;39.03;14.20;;;;;;;-4.72;84.26;101664.47;5060763;28;20493;-66
2022/12/17 14:12:34;;;;;;;31.47;11.53;;;;;;;-4.87;84.78;101675.16;5060219;28;20488;-66
2022/12/17 14:15:07;;;;;;;33.70;11.57;;;;;;;-4.96;85.21;101676.88;5064670;28;20488;-70
2022/12/17 14:17:48;;;;;;;33.13;11.70;;;;;;;-5.01;86.32;101669.44;5068653;28;20455;-66
2022/12/17 14:20:24;;;;;;;33.07;11.40;;;;;;;-4.88;85.60;101675.91;5067100;28;21002;-69
2022/12/17 14:22:58;;;;;;;29.73;11.33;;;;;;;-4.95;85.95;101672.59;5067385;28;20892;-69
2022/12/17 14:25:32;;;;;;;38.03;13.50;;;;;;;-4.92;86.01;101672.91;5064287;28;20517;-68
2022/12/17 14:28:21;;;;;;;33.73;12.70;;;;;;;-4.84;86.63;101680.59;5060785;28;20551;-67
2022/12/17 14:30:48;;;;;;;32.50;11.80;;;;;;;-4.84;86.46;101678.03;5039817;28;20481;-67
2022/12/17 14:33:36;;;;;;;34.77;11.73;;;;;;;-4.83;86.31;101672.09;5048097;28;20944;-67
2022/12/17 14:36:13;;;;;;;39.93;17.90;;;;;;;-4.78;85.37;101675.13;5057316;28;20484;-67
2022/12/17 14:38:52;;;;;;;30.70;12.27;;;;;;;-4.98;86.34;101670.66;5046407;28;20996;-67
2022/12/17 14:44:06;;;;;;;31.47;10.63;;;;;;;-4.96;86.06;101687.19;5068932;28;20517;-66
2022/12/17 14:46:33;;;;;;;29.57;11.03;;;;;;;-5.12;86.08;101671.03;5065526;28;20460;-67
2022/12/17 14:49:03;;;;;;;45.03;23.47;;;;;;;-5.05;85.92;101697.56;5059547;28;20472;-66
2022/12/17 14:51:40;;;;;;;38.93;17.10;;;;;;;-5.06;86.25;101702.59;5064874;28;20226;-66
2022/12/17 14:54:12;;;;;;;32.30;13.43;;;;;;;-5.06;86.76;101702.59;5061991;28;20460;-68
2022/12/17 14:56:40;;;;;;;109.63;37.57;;;;;;;-5.05;86.14;101701.81;5067721;28;20499;-67
2022/12/17 14:59:36;;;;;;;34.27;12.67;;;;;;;-5.21;86.44;101702.00;5065235;28;20460;-66
2022/12/17 15:02:22;;;;;;;28.13;11.00;;;;;;;-5.11;86.47;101701.25;5066355;28;20478;-67
2022/12/17 15:04:51;;;;;;;33.63;10.43;;;;;;;-5.06;85.93;101697.44;5069095;28;20456;-68
2022/12/17 15:07:24;;;;;;;31.73;12.33;;;;;;;-5.10;86.19;101700.47;5064318;28;21062;-66
2022/12/17 15:09:51;;;;;;;30.43;12.17;;;;;;;-4.97;85.01;101699.97;5063721;28;20563;-66
2022/12/17 15:12:22;;;;;;;36.10;17.03;;;;;;;-5.08;85.04;101699.84;5056830;28;20614;-68
2022/12/17 15:14:49;;;;;;;29.93;12.17;;;;;;;-5.14;85.56;101711.28;5056797;28;20495;-66
2022/12/17 15:17:16;;;;;;;31.07;11.60;;;;;;;-5.26;85.58;101708.41;5054694;28;20536;-69
2022/12/17 15:19:42;;;;;;;29.30;12.13;;;;;;;-5.26;85.93;101713.56;5040185;28;20489;-66
2022/12/17 15:22:15;;;;;;;33.80;12.97;;;;;;;-5.28;85.63;101712.50;5065060;28;20490;-66
2022/12/17 15:24:43;;;;;;;27.97;10.57;;;;;;;-5.26;85.64;101707.50;5063364;28;20464;-67
2022/12/17 15:27:15;;;;;;;28.53;11.43;;;;;;;-5.29;86.19;101722.69;5062408;28;20595;-66
2022/12/17 15:29:43;;;;;;;33.00;11.80;;;;;;;-5.32;86.09;101724.97;5058473;28;20499;-66
2022/12/17 15:32:21;;;;;;;45.60;19.57;;;;;;;-5.45;85.89;101708.28;5059257;28;20480;-66
2022/12/17 15:34:49;;;;;;;27.97;11.63;;;;;;;-5.54;86.61;101722.88;5057091;28;20463;-66
2022/12/17 15:37:16;;;;;;;27.67;11.33;;;;;;;-5.46;86.86;101726.22;5059633;28;20460;-67
2022/12/17 15:39:47;;;;;;;30.43;9.50;;;;;;;-5.44;87.22;101719.53;5061253;28;20457;-66
2022/12/17 15:44:59;;;;;;;27.13;10.40;;;;;;;-5.47;86.72;101734.72;5060878;28;20890;-66
2022/12/17 15:47:25;;;;;;;45.17;19.17;;;;;;;-5.41;86.96;101728.47;5060778;28;20460;-68
2022/12/17 15:49:51;;;;;;;22.50;9.37;;;;;;;-5.38;86.84;101735.63;5060096;28;20494;-67
2022/12/17 15:52:18;;;;;;;40.33;18.90;;;;;;;-5.39;86.55;101731.22;5058665;28;20888;-66
2022/12/17 15:54:44;;;;;;;25.77;10.30;;;;;;;-5.55;86.47;101736.56;5057369;28;20824;-66
2022/12/17 15:57:11;;;;;;;26.77;9.17;;;;;;;-5.48;87.07;101735.47;5061883;28;20575;-66
2022/12/17 15:59:43;;;;;;;29.10;11.07;;;;;;;-5.59;86.93;101736.09;5040299;28;20987;-67
2022/12/17 16:02:10;;;;;;;25.10;10.67;;;;;;;-5.57;87.26;101739.75;5063803;28;20595;-67
2022/12/17 16:04:37;;;;;;;28.57;10.27;;;;;;;-5.58;87.09;101741.41;5060180;28;20519;-67
2022/12/17 16:07:04;;;;;;;39.63;18.17;;;;;;;-5.62;86.67;101741.84;5059704;28;20471;-66
2022/12/17 16:09:30;;;;;;;27.20;10.50;;;;;;;-5.63;86.86;101741.69;5062166;28;20859;-66
2022/12/17 16:11:56;;;;;;;33.87;9.00;;;;;;;-5.69;86.89;101735.16;5053777;28;21170;-67
2022/12/17 16:14:23;;;;;;;17.77;7.43;;;;;;;-5.75;87.07;101747.47;5059139;28;20456;-66
2022/12/17 16:16:50;;;;;;;27.47;10.00;;;;;;;-5.83;87.79;101745.81;5059142;28;20540;-65
2022/12/17 16:19:17;;;;;;;28.87;9.73;;;;;;;-5.85;87.87;101751.56;5057297;28;20873;-66
2022/12/17 16:21:43;;;;;;;42.13;18.40;;;;;;;-5.90;87.89;101748.56;5059708;28;20805;-66
2022/12/17 16:24:12;;;;;;;19.70;8.20;;;;;;;-5.90;88.50;101752.81;5059807;28;20521;-68
2022/12/17 16:26:38;;;;;;;45.30;19.20;;;;;;;-5.92;88.15;101762.97;5066275;28;20488;-68
2022/12/17 16:29:05;;;;;;;44.37;17.80;;;;;;;-6.00;87.92;101761.31;5046702;28;22934;-65
2022/12/17 16:31:32;;;;;;;46.67;17.73;;;;;;;-6.03;88.56;101764.44;5061802;28;21093;-66
2022/12/17 16:33:58;;;;;;;22.80;8.20;;;;;;;-6.16;88.76;101745.03;5060877;28;20809;-66
2022/12/17 16:36:24;;;;;;;12.60;6.00;;;;;;;-6.04;88.08;101762.63;5050631;28;20486;-69
2022/12/17 16:38:52;;;;;;;41.47;19.17;;;;;;;-6.13;88.67;101768.53;5063930;28;20870;-66
2022/12/17 16:41:20;;;;;;;23.80;10.20;;;;;;;-6.09;89.38;101770.66;5062393;28;21678;-68
2022/12/17 16:43:46;;;;;;;25.90;11.30;;;;;;;-6.05;89.96;101765.97;5066322;28;20566;-68
2022/12/17 16:46:23;;;;;;;47.50;20.87;;;;;;;-5.99;89.85;101765.72;5066009;28;20464;-66
2022/12/17 16:48:49;;;;;;;49.57;20.23;;;;;;;-5.95;90.17;101754.03;5066999;28;20480;-66
2022/12/17 16:51:17;;;;;;;47.47;20.57;;;;;;;-5.88;90.03;101767.66;5066046;28;20626;-66
2022/12/17 16:53:54;;;;;;;25.90;10.00;;;;;;;-5.81;89.36;101772.66;5062412;28;20472;-66
2022/12/17 16:56:26;;;;;;;27.70;11.60;;;;;;;-5.82;89.02;101770.84;5047842;28;20508;-65
2022/12/17 16:58:56;;;;;;;26.47;10.20;;;;;;;-5.81;89.08;101772.66;5064782;28;20935;-65
2022/12/17 17:01:25;;;;;;;26.40;10.23;;;;;;;-5.90;89.50;101773.44;5070182;28;20967;-65
2022/12/17 17:03:51;;;;;;;45.33;19.37;;;;;;;-5.84;89.17;101776.59;5071745;28;20480;-68
2022/12/17 17:06:19;;;;;;;53.47;21.97;;;;;;;-5.89;89.16;101781.31;5068287;28;20943;-65
2022/12/17 17:08:46;;;;;;;52.80;20.87;;;;;;;-5.90;88.92;101776.03;5063291;28;20460;-65
2022/12/17 17:11:16;;;;;;;30.97;11.97;;;;;;;-5.88;89.10;101784.78;5064932;28;20567;-66
2022/12/17 17:13:43;;;;;;;43.23;13.43;;;;;;;-5.81;89.03;101782.97;5083375;22;20599;-68
2022/12/17 17:16:10;;;;;;;34.47;11.30;;;;;;;-5.73;87.93;101792.38;5064765;28;20457;-68
2022/12/17 17:18:38;;;;;;;34.20;12.53;;;;;;;-5.90;88.38;101771.78;5066063;28;20984;-68
2022/12/17 17:21:27;;;;;;;33.93;13.07;;;;;;;-5.86;88.46;101784.19;5063357;28;20463;-68
2022/12/17 17:23:58;;;;;;;31.57;11.10;;;;;;;-5.89;88.51;101785.59;5050504;28;20567;-68
2022/12/17 17:26:27;;;;;;;32.50;11.93;;;;;;;-5.93;88.43;101775.72;5064034;28;20491;-68
2022/12/17 17:28:54;;;;;;;34.57;12.13;;;;;;;-5.92;88.76;101773.28;5065061;28;20463;-69
2022/12/17 17:31:20;;;;;;;50.47;21.13;;;;;;;-5.93;88.64;101776.63;5049720;28;20540;-68
2022/12/17 17:33:49;;;;;;;49.20;20.03;;;;;;;-5.95;88.26;101784.97;5065668;28;20472;-69
2022/12/17 17:36:26;;;;;;;37.60;11.07;;;;;;;-5.94;88.03;101787.69;5063184;28;20460;-68
2022/12/17 17:38:57;;;;;;;28.43;9.60;;;;;;;-5.88;88.27;101777.06;5066313;28;20509;-68
2022/12/17 17:41:26;;;;;;;29.43;10.40;;;;;;;-5.94;88.56;101785.13;5066567;28;20488;-68
2022/12/17 17:43:55;;;;;;;51.90;20.40;;;;;;;-6.04;88.62;101770.38;5063732;28;21072;-68
2022/12/17 17:46:22;;;;;;;33.33;11.50;;;;;;;-6.03;88.98;101773.84;5063811;28;20587;-68
2022/12/17 17:48:49;;;;;;;33.47;11.20;;;;;;;-6.01;89.69;101777.50;5068262;28;20994;-68
2022/12/17 17:51:24;;;;;;;28.17;10.13;;;;;;;-5.91;88.56;101774.19;5065277;28;20480;-68
2022/12/17 17:54:11;;;;;;;26.50;11.03;;;;;;;-5.87;88.82;101773.72;5065935;28;20965;-68
2022/12/17 17:56:41;;;;;;;30.13;11.00;;;;;;;-5.84;87.87;101779.19;5046265;28;20460;-68
2022/12/17 17:59:11;;;;;;;28.47;10.83;;;;;;;-5.94;88.35;101787.69;5062427;28;20484;-68
2022/12/17 18:01:40;;;;;;;29.80;10.67;;;;;;;-5.96;88.47;101789.22;5061459;28;20463;-68
2022/12/17 18:04:11;;;;;;;31.40;12.23;;;;;;;-5.98;88.62;101789.81;5063633;28;20876;-69
2022/12/17 18:06:39;;;;;;;33.60;12.17;;;;;;;-5.98;88.85;101798.47;5067700;28;20547;-68
2022/12/17 18:09:18;;;;;;;44.20;12.80;;;;;;;-5.96;89.03;101802.13;5062814;28;20468;-69
2022/12/17 18:11:44;;;;;;;54.43;22.10;;;;;;;-6.07;89.13;101782.03;5072740;28;20483;-68
2022/12/17 18:14:14;;;;;;;27.90;10.77;;;;;;;-5.98;88.79;101787.25;5071210;28;20484;-68
2022/12/17 18:16:47;;;;;;;38.63;13.23;;;;;;;-6.00;88.81;101787.09;5069408;28;20545;-68
2022/12/17 18:19:19;;;;;;;34.10;11.80;;;;;;;-5.90;88.73;101809.56;5066154;28;20452;-68
2022/12/17 18:21:46;;;;;;;68.27;21.57;;;;;;;-6.00;88.55;101807.72;5044745;28;20460;-68
2022/12/17 18:24:20;;;;;;;53.90;21.97;;;;;;;-6.06;88.43;101807.06;5061765;28;20575;-68
2022/12/17 18:26:46;;;;;;;29.17;10.63;;;;;;;-6.10;88.74;101799.78;5052310;28;20543;-68
2022/12/17 18:29:22;;;;;;;38.10;12.43;;;;;;;-6.02;88.13;101809.19;5075464;28;20976;-68
2022/12/17 18:31:49;;;;;;;24.90;8.17;;;;;;;-6.02;88.46;101804.03;5074656;28;20484;-68
2022/12/17 18:34:22;;;;;;;38.33;11.40;;;;;;;-6.02;88.45;101807.53;5066986;28;21042;-68
2022/12/17 18:36:49;;;;;;;34.20;11.50;;;;;;;-6.10;88.40;101811.00;5070938;28;20931;-68
2022/12/17 18:39:18;;;;;;;36.77;12.40;;;;;;;-6.13;88.83;101810.69;5066059;28;20563;-68
2022/12/17 18:44:32;;;;;;;28.03;9.77;;;;;;;-6.19;87.86;101820.38;5069525;28;21411;-68
2022/12/17 18:46:59;;;;;;;47.77;18.07;;;;;;;-6.22;87.50;101827.81;5069920;28;20940;-68
2022/12/17 18:49:25;;;;;;;29.03;10.03;;;;;;;-6.43;87.73;101830.75;5049747;28;20461;-68
2022/12/17 18:51:53;;;;;;;21.97;8.90;;;;;;;-6.50;88.01;101826.63;5069924;28;20829;-68
2022/12/17 18:54:25;;;;;;;26.53;8.67;;;;;;;-6.62;88.20;101817.63;5069689;28;21530;-68
2022/12/17 18:56:54;;;;;;;23.87;8.77;;;;;;;-6.64;88.64;101837.19;5069584;28;20464;-67
2022/12/17 18:59:29;;;;;;;31.70;8.87;;;;;;;-6.69;89.02;101834.13;5069761;28;20959;-68
2022/12/17 19:01:57;;;;;;;26.80;9.23;;;;;;;-6.69;89.28;101836.69;5067480;28;20514;-67
2022/12/17 19:04:24;;;;;;;24.73;9.00;;;;;;;-6.69;89.24;101825.47;5069006;28;20490;-67
2022/12/17 19:06:52;;;;;;;30.93;10.73;;;;;;;-6.73;89.39;101836.22;5066662;28;20457;-68
2022/12/17 19:09:24;;;;;;;26.60;10.93;;;;;;;-6.81;89.10;101839.63;5060914;28;20466;-68
2022/12/17 19:11:51;;;;;;;15.20;6.37;;;;;;;-6.77;89.82;101839.22;5050311;28;20988;-68
2022/12/17 19:14:20;;;;;;;21.13;7.93;;;;;;;-6.74;89.90;101844.69;5062202;28;20566;-68
2022/12/17 19:16:47;;;;;;;21.57;7.37;;;;;;;-6.81;89.58;101829.34;5063219;28;20459;-67
2022/12/17 19:19:14;;;;;;;43.17;18.80;;;;;;;-6.88;90.31;101840.66;5068011;28;20456;-67
2022/12/17 19:21:41;;;;;;;42.00;18.10;;;;;;;-6.81;90.83;101840.53;5065513;28;20471;-68
2022/12/17 19:24:11;;;;;;;28.40;9.13;;;;;;;-6.78;90.92;101832.25;5042374;28;20571;-68
2022/12/17 19:26:37;;;;;;;24.80;9.30;;;;;;;-6.73;90.93;101831.97;5060874;28;20469;-67
2022/12/17 19:29:04;;;;;;;28.27;8.67;;;;;;;-6.71;90.75;101833.06;5059248;28;20522;-68
2022/12/17 19:31:31;;;;;;;31.13;10.57;;;;;;;-6.71;90.63;101842.44;5061924;28;20551;-68
2022/12/17 19:33:59;;;;;;;33.37;9.73;;;;;;;-6.75;90.61;101843.78;5060022;28;20476;-68
2022/12/17 19:36:30;;;;;;;27.40;9.77;;;;;;;-6.73;90.22;101850.00;5062734;28;20882;-68
2022/12/17 19:38:59;;;;;;;28.90;10.07;;;;;;;-6.78;90.68;101843.47;5061035;28;20452;-67
2022/12/17 19:41:27;;;;;;;27.10;10.47;;;;;;;-6.80;90.62;101854.38;5063252;28;20456;-68
2022/12/17 19:43:56;;;;;;;28.70;9.40;;;;;;;-6.78;91.10;101842.56;5068356;28;20555;-68
2022/12/17 19:46:24;;;;;;;25.30;8.97;;;;;;;-6.65;90.13;101849.13;5066034;28;20468;-68
2022/12/17 19:48:51;;;;;;;20.67;8.63;;;;;;;-6.74;89.90;101840.47;5065017;28;20462;-68
2022/12/17 19:51:21;;;;;;;47.40;19.53;;;;;;;-6.71;89.97;101835.63;5064853;28;20995;-68
2022/12/17 19:53:48;;;;;;;33.27;10.63;;;;;;;-6.85;89.92;101837.50;5064855;28;20525;-68
2022/12/17 19:56:26;;;;;;;27.87;8.73;;;;;;;-6.69;90.12;101856.41;5064247;28;20959;-68
2022/12/17 19:58:54;;;;;;;45.17;18.17;;;;;;;-6.64;89.70;101860.34;5065563;28;20456;-68
2022/12/17 20:01:26;;;;;;;24.37;9.50;;;;;;;-6.74;89.84;101863.66;5067068;28;20551;-68
2022/12/17 20:03:54;;;;;;;26.03;9.37;;;;;;;-6.75;90.33;101863.47;5065850;28;20484;-68
2022/12/17 20:06:23;;;;;;;48.63;19.57;;;;;;;-6.73;90.36;101854.25;5049038;28;20455;-68
2022/12/17 20:08:50;;;;;;;26.13;8.93;;;;;;;-6.83;90.09;101865.22;5071298;28;21010;-68
2022/12/17 20:11:32;;;;;;;35.50;10.83;;;;;;;-6.76;90.29;101865.16;5067025;28;20920;-68
2022/12/17 20:14:03;;;;;;;46.33;18.47;;;;;;;-6.85;90.20;101863.25;5047595;28;21038;-68
2022/12/17 20:16:32;;;;;;;50.60;20.80;;;;;;;-6.85;90.51;101873.53;5065563;28;20602;-68
2022/12/17 20:19:00;;;;;;;32.10;10.57;;;;;;;-6.88;90.31;101870.66;5067764;28;20452;-68
2022/12/17 20:21:27;;;;;;;33.63;10.47;;;;;;;-6.86;90.55;101887.16;5065603;28;20507;-68
2022/12/17 20:23:53;;;;;;;36.27;11.77;;;;;;;-6.91;90.36;101883.19;5062770;28;20929;-69
2022/12/17 20:26:20;;;;;;;22.13;9.63;;;;;;;-7.01;90.45;101896.75;5070909;28;21086;-68
2022/12/17 20:28:46;;;;;;;37.23;12.13;;;;;;;-7.22;90.66;101868.72;5067535;28;20968;-68
2022/12/17 20:31:13;;;;;;;28.73;11.07;;;;;;;-7.14;91.01;101888.50;5065916;28;20574;-67
2022/12/17 20:33:40;;;;;;;28.83;10.83;;;;;;;-7.11;90.59;101887.16;5068474;28;21007;-67
2022/12/17 20:36:13;;;;;;;49.70;20.33;;;;;;;-7.17;90.28;101881.34;5049378;28;20464;-68
2022/12/17 20:38:42;;;;;;;45.27;19.17;;;;;;;-7.18;90.09;101892.41;5065604;28;20567;-68
2022/12/17 20:41:14;;;;;;;32.23;9.97;;;;;;;-7.17;90.20;101888.16;5065040;28;20898;-68
2022/12/17 20:43:41;;;;;;;36.00;11.17;;;;;;;-7.40;90.04;101883.09;5064803;28;21037;-68
2022/12/17 20:46:09;;;;;;;27.33;9.20;;;;;;;-7.60;90.26;101883.53;5065853;28;20453;-68
2022/12/17 20:48:40;;;;;;;26.90;9.97;;;;;;;-7.71;90.39;101881.44;5064018;28;20464;-68
2022/12/17 20:51:08;;;;;;;28.90;9.93;;;;;;;-7.86;90.71;101869.50;5068130;28;20488;-68
2022/12/17 20:53:37;;;;;;;44.97;18.50;;;;;;;-7.88;90.96;101874.47;5067668;28;21050;-68
2022/12/17 20:56:10;;;;;;;27.40;9.67;;;;;;;-7.85;91.42;101869.66;5060948;28;20499;-68
2022/12/17 20:58:37;;;;;;;33.83;10.90;;;;;;;-7.93;91.32;101873.06;5063830;28;20460;-67
2022/12/17 21:01:17;;;;;;;53.53;20.23;;;;;;;-8.01;91.50;101876.41;5066590;28;20460;-68
2022/12/17 21:03:44;;;;;;;29.53;9.10;;;;;;;-7.96;91.39;101883.00;5067367;28;20472;-68
2022/12/17 21:06:18;;;;;;;51.33;19.53;;;;;;;-8.10;91.57;101890.81;5060981;28;20539;-68
2022/12/17 21:08:50;;;;;;;53.37;19.23;;;;;;;-8.21;91.53;101889.66;5066516;28;20452;-68
2022/12/17 21:11:18;;;;;;;48.00;19.50;;;;;;;-8.35;91.82;101888.16;5066263;28;20843;-68
2022/12/17 21:13:46;;;;;;;51.53;20.67;;;;;;;-8.34;92.32;101901.91;5066480;28;20497;-68
2022/12/17 21:16:15;;;;;;;51.90;19.93;;;;;;;-8.28;92.53;101900.91;5067501;28;20456;-68
2022/12/17 21:18:42;;;;;;;52.83;20.80;;;;;;;-8.34;92.19;101901.91;5067477;28;20511;-68
2022/12/17 21:21:17;;;;;;;32.03;10.97;;;;;;;-8.39;92.34;101897.91;5068125;28;20498;-68
2022/12/17 21:23:44;;;;;;;27.53;10.00;;;;;;;-8.42;92.16;101902.69;5067783;28;20522;-68
2022/12/17 21:26:17;;;;;;;26.90;10.67;;;;;;;-8.36;92.20;101909.44;5066146;28;20533;-68
2022/12/17 21:28:45;;;;;;;36.47;10.77;;;;;;;-8.45;91.58;101907.47;5061618;28;20510;-68
2022/12/17 21:31:21;;;;;;;32.43;10.80;;;;;;;-8.52;90.17;101904.97;5055117;28;20577;-68
2022/12/17 21:33:49;;;;;;;30.17;12.33;;;;;;;-8.60;90.29;101912.72;5066324;28;20471;-68
2022/12/17 21:36:17;;;;;;;35.23;12.63;;;;;;;-8.56;90.65;101914.91;5064026;28;20968;-68
2022/12/17 21:38:44;;;;;;;34.23;12.10;;;;;;;-8.66;90.42;101906.00;5064616;28;20452;-68
2022/12/17 21:41:20;;;;;;;37.43;11.67;;;;;;;-8.54;91.02;101908.28;5064764;28;20542;-68
2022/12/17 21:43:47;;;;;;;29.97;10.73;;;;;;;-8.39;91.27;101919.38;5044354;28;20476;-68
2022/12/17 21:46:13;;;;;;;31.90;10.93;;;;;;;-8.47;90.87;101904.75;5064654;28;20471;-68
2022/12/17 21:48:41;;;;;;;30.23;10.77;;;;;;;-8.38;90.90;101903.22;5069485;28;20499;-68
2022/12/17 21:51:10;;;;;;;54.20;19.63;;;;;;;-8.35;91.05;101900.09;5073083;28;20500;-68
2022/12/17 21:53:41;;;;;;;55.97;22.23;;;;;;;-8.23;90.91;101902.31;5072930;28;20487;-67
2022/12/17 21:56:13;;;;;;;28.73;10.57;;;;;;;-8.22;90.76;101898.09;5066780;28;20885;-68
2022/12/17 21:58:41;;;;;;;55.40;21.17;;;;;;;-8.27;91.04;101887.31;5069362;28;20466;-68
2022/12/17 22:01:20;;;;;;;47.37;19.77;;;;;;;-8.04;91.34;101899.22;5066830;28;20471;-67
2022/12/17 22:03:48;;;;;;;26.63;8.83;;;;;;;-7.78;91.00;101903.00;5066049;28;20502;-68
2022/12/17 22:06:22;;;;;;;35.33;10.83;;;;;;;-7.84;90.10;101892.06;5058649;28;20449;-68
2022/12/17 22:08:58;;;;;;;24.63;8.53;;;;;;;-7.83;90.48;101900.66;5071208;28;21048;-68
2022/12/17 22:11:31;;;;;;;34.43;10.73;;;;;;;-7.84;90.12;101896.28;5070632;28;20482;-68
2022/12/17 22:14:01;;;;;;;43.10;12.33;;;;;;;-7.87;90.32;101907.13;5075665;28;20569;-68
2022/12/17 22:16:42;;;;;;;27.80;10.53;;;;;;;-7.92;90.22;101905.72;5061338;28;20996;-67
2022/12/17 22:19:10;;;;;;;32.17;11.67;;;;;;;-8.01;90.35;101892.75;5069130;28;20465;-68
2022/12/17 22:21:39;;;;;;;32.27;12.00;;;;;;;-8.10;89.67;101895.97;5072915;28;20458;-68
2022/12/17 22:24:10;;;;;;;32.17;9.97;;;;;;;-8.27;89.61;101882.16;5068000;28;20563;-68
2022/12/17 22:26:37;;;;;;;28.47;10.00;;;;;;;-8.44;90.05;101873.34;5061611;28;21003;-68
2022/12/17 22:29:03;;;;;;;28.33;10.77;;;;;;;-8.46;90.14;101898.84;5066974;28;20460;-67
2022/12/17 22:34:15;;;;;;;46.03;19.00;;;;;;;-8.66;89.78;101894.06;5067429;28;20476;-68
2022/12/17 22:37:01;;;;;;;56.77;20.53;;;;;;;-8.74;90.21;101892.28;5054924;28;20465;-68
2022/12/17 22:39:48;;;;;;;52.00;20.00;;;;;;;-8.64;90.33;101910.56;5071506;28;20517;-68
2022/12/17 22:45:40;;;;;;;31.23;9.10;;;;;;;-8.58;90.93;101911.25;5069174;28;20896;-68
2022/12/17 22:48:08;;;;;;;30.50;9.70;;;;;;;-8.58;90.55;101908.69;5071290;28;20990;-68
2022/12/17 22:50:35;;;;;;;28.57;9.60;;;;;;;-8.48;90.88;101913.19;5070700;28;20533;-68
2022/12/17 22:53:15;;;;;;;30.40;11.40;;;;;;;-8.45;90.89;101918.66;5069421;28;20582;-68
2022/12/17 22:55:42;;;;;;;32.23;11.27;;;;;;;-8.36;91.08;101913.69;5070688;28;20809;-68
2022/12/17 22:58:09;;;;;;;24.97;10.10;;;;;;;-8.42;90.81;101898.47;5068335;28;20518;-68
2022/12/17 23:00:35;;;;;;;30.67;9.50;;;;;;;-8.30;90.85;101916.88;5070576;28;20456;-68
2022/12/17 23:03:02;;;;;;;23.67;8.77;;;;;;;-8.33;90.86;101911.44;5065950;28;20464;-68
2022/12/17 23:05:30;;;;;;;26.70;8.63;;;;;;;-8.34;90.54;101907.06;5070326;28;20475;-67
2022/12/17 23:07:57;;;;;;;26.57;9.50;;;;;;;-8.33;90.61;101912.31;5067877;28;20484;-68
2022/12/17 23:10:25;;;;;;;24.87;9.83;;;;;;;-8.30;90.53;101910.09;5069538;28;20539;-67
2022/12/17 23:12:53;;;;;;;30.83;9.67;;;;;;;-8.27;90.55;101915.56;5084189;23;20484;-66
2022/12/17 23:15:33;;;;;;;27.10;9.80;;;;;;;-8.22;90.80;101914.44;5065637;28;20963;-65
2022/12/17 23:18:01;;;;;;;29.43;10.50;;;;;;;-8.24;90.67;101915.00;5062651;28;20455;-65
2022/12/17 23:20:30;;;;;;;28.53;9.80;;;;;;;-8.28;90.41;101915.41;5063281;28;20459;-67
2022/12/17 23:22:56;;;;;;;39.63;16.90;;;;;;;-8.32;89.95;101921.84;5057944;28;20504;-68
2022/12/17 23:25:24;;;;;;;43.93;18.83;;;;;;;-8.26;90.16;101924.19;5049324;28;20456;-64
2022/12/17 23:27:51;;;;;;;32.17;11.87;;;;;;;-8.41;89.41;101928.53;5041499;28;20992;-68
2022/12/17 23:30:18;;;;;;;44.47;18.73;;;;;;;-8.50;89.25;101929.16;5047989;28;20489;-65
2022/12/17 23:32:44;;;;;;;41.47;17.77;;;;;;;-8.50;89.69;101930.06;5046446;28;20520;-65
2022/12/17 23:35:11;;;;;;;50.27;20.50;;;;;;;-8.52;89.43;101929.00;5045381;28;20545;-67
2022/12/17 23:37:39;;;;;;;45.67;19.40;;;;;;;-8.51;88.97;101929.91;5044382;28;20457;-67
2022/12/17 23:40:08;;;;;;;33.57;10.67;;;;;;;-8.57;89.35;101935.28;5045811;28;20495;-66
2022/12/17 23:42:34;;;;;;;27.90;10.23;;;;;;;-8.69;89.87;101921.06;5050401;28;20449;-65
2022/12/17 23:45:01;;;;;;;30.17;10.13;;;;;;;-8.55;89.81;101934.69;5039756;28;20466;-65
2022/12/17 23:47:27;;;;;;;31.70;10.07;;;;;;;-8.49;90.12;101933.56;5046478;28;20548;-66
2022/12/17 23:49:54;;;;;;;46.67;19.10;;;;;;;-8.27;90.23;101932.66;5043785;28;20551;-65
2022/12/17 23:52:20;;;;;;;47.60;20.10;;;;;;;-8.12;90.10;101925.72;5044614;28;20481;-67
2022/12/17 23:54:46;;;;;;;32.90;12.00;;;;;;;-8.04;90.29;101919.75;5047622;28;20449;-67
2022/12/17 23:57:13;;;;;;;29.07;9.87;;;;;;;-7.94;90.26;101920.97;5048446;28;20544;-66
2022/12/17 23:59:39;;;;;;;23.93;10.07;;;;;;;-7.88;90.34;101914.69;5048196;28;20493;-64
